createdAt,value
2023-02-12T00:01:35.117Z,63.97
2023-02-12T00:04:03.393Z,51.37
2023-02-12T00:06:31.444Z,54.97
2023-02-12T00:08:59.400Z,55.53
2023-02-12T00:11:30.263Z,50.50
2023-02-12T00:13:59.561Z,55.13
2023-02-12T00:16:29.887Z,58.00
2023-02-12T00:19:00.967Z,59.37
2023-02-12T00:21:29.197Z,51.87
2023-02-12T00:23:58.728Z,55.23
2023-02-12T00:26:26.709Z,67.47
2023-02-12T00:28:58.582Z,56.30
2023-02-12T00:31:31.972Z,58.07
2023-02-12T00:34:01.754Z,55.73
2023-02-12T00:36:35.793Z,54.93
2023-02-12T00:39:05.300Z,61.97
2023-02-12T00:41:33.093Z,52.80
2023-02-12T00:44:01.000Z,49.83
2023-02-12T00:46:29.860Z,49.43
2023-02-12T00:48:58.171Z,59.90
2023-02-12T00:51:26.016Z,58.33
2023-02-12T00:53:53.765Z,51.40
2023-02-12T00:56:22.001Z,53.27
2023-02-12T00:58:50.706Z,54.43
2023-02-12T01:01:22.644Z,54.90
2023-02-12T01:03:51.403Z,56.03
2023-02-12T01:06:25.731Z,50.17
2023-02-12T01:08:55.749Z,57.50
2023-02-12T01:11:36.364Z,54.47
2023-02-12T01:14:10.874Z,59.23
2023-02-12T01:16:47.616Z,47.07
2023-02-12T01:19:19.210Z,56.47
2023-02-12T01:21:49.448Z,53.43
2023-02-12T01:24:17.173Z,59.57
2023-02-12T01:26:44.857Z,54.40
2023-02-12T01:29:12.758Z,53.17
2023-02-12T01:31:40.806Z,58.50
2023-02-12T01:34:11.433Z,53.87
2023-02-12T01:36:40.073Z,57.50
2023-02-12T01:39:08.057Z,53.40
2023-02-12T01:41:45.321Z,54.73
2023-02-12T01:44:25.723Z,52.43
2023-02-12T01:47:05.208Z,60.67
2023-02-12T01:49:43.345Z,48.20
2023-02-12T01:52:27.542Z,48.70
2023-02-12T01:55:06.022Z,50.77
2023-02-12T01:57:43.703Z,53.03
2023-02-12T02:00:25.929Z,50.50
2023-02-12T02:03:02.100Z,47.00
2023-02-12T02:05:57.280Z,48.80
2023-02-12T02:08:26.612Z,52.03
2023-02-12T02:10:55.074Z,53.40
2023-02-12T02:13:41.372Z,45.20
2023-02-12T02:16:37.657Z,51.63
2023-02-12T02:19:59.637Z,53.77
2023-02-12T02:23:39.865Z,42.20
2023-02-12T02:27:15.291Z,46.13
2023-02-12T02:30:45.321Z,41.83
2023-02-12T02:34:07.293Z,48.30
2023-02-12T02:37:18.909Z,44.67
2023-02-12T02:40:21.396Z,52.00
2023-02-12T02:43:11.092Z,51.30
2023-02-12T02:46:07.825Z,54.03
2023-02-12T02:48:55.451Z,56.43
2023-02-12T02:51:56.493Z,55.00
2023-02-12T02:55:06.776Z,45.23
2023-02-12T02:58:15.388Z,50.33
2023-02-12T03:01:38.079Z,50.63
2023-02-12T03:05:12.389Z,45.30
2023-02-12T03:08:19.571Z,52.23
2023-02-12T03:11:12.520Z,45.77
2023-02-12T03:14:17.782Z,49.40
2023-02-12T03:17:36.821Z,52.80
2023-02-12T03:20:35.462Z,53.70
2023-02-12T03:23:18.995Z,40.00
2023-02-12T03:26:19.419Z,44.23
2023-02-12T03:28:53.099Z,52.57
2023-02-12T03:32:42.806Z,46.87
2023-02-12T03:35:43.686Z,45.53
2023-02-12T03:38:30.134Z,44.40
2023-02-12T03:41:36.283Z,53.63
2023-02-12T03:45:04.461Z,57.00
2023-02-12T03:48:30.894Z,44.50
2023-02-12T03:51:39.988Z,44.43
2023-02-12T03:54:20.617Z,39.73
2023-02-12T03:57:41.683Z,50.07
2023-02-12T04:00:28.081Z,46.40
2023-02-12T04:03:03.175Z,45.27
2023-02-12T04:05:35.454Z,44.37
2023-02-12T04:08:15.122Z,40.13
2023-02-12T04:11:23.891Z,46.73
2023-02-12T04:14:34.482Z,44.53
2023-02-12T04:17:40.098Z,44.10
2023-02-12T04:20:50.702Z,50.67
2023-02-12T04:24:21.302Z,44.83
2023-02-12T04:27:37.445Z,45.67
2023-02-12T04:30:42.716Z,51.70
2023-02-12T04:33:26.357Z,48.60
2023-02-12T04:36:39.029Z,46.80
2023-02-12T04:39:29.950Z,45.60
2023-02-12T04:42:07.888Z,46.87
2023-02-12T04:44:48.237Z,44.93
2023-02-12T04:47:20.745Z,44.47
2023-02-12T04:49:55.364Z,55.87
2023-02-12T04:52:27.922Z,49.77
2023-02-12T04:55:02.221Z,47.90
2023-02-12T04:57:34.934Z,46.17
2023-02-12T05:00:15.395Z,49.00
2023-02-12T05:02:47.526Z,57.93
2023-02-12T05:05:23.330Z,53.50
2023-02-12T05:07:56.148Z,48.37
2023-02-12T05:10:28.199Z,53.70
2023-02-12T05:13:00.294Z,52.07
2023-02-12T05:15:32.274Z,49.77
2023-02-12T05:18:04.591Z,55.23
2023-02-12T05:20:45.585Z,54.10
2023-02-12T05:23:17.269Z,55.50
2023-02-12T05:25:53.052Z,53.83
2023-02-12T05:28:25.251Z,57.00
2023-02-12T05:30:57.347Z,54.27
2023-02-12T05:33:29.542Z,48.77
2023-02-12T05:36:19.440Z,57.83
2023-02-12T05:38:54.191Z,53.87
2023-02-12T05:41:30.736Z,56.27
2023-02-12T05:44:03.825Z,50.50
2023-02-12T05:46:36.481Z,57.17
2023-02-12T05:49:09.885Z,62.33
2023-02-12T05:51:51.823Z,58.20
2023-02-12T05:54:23.698Z,57.47
2023-02-12T05:57:01.759Z,58.50
2023-02-12T05:59:35.259Z,58.97
2023-02-12T06:02:07.285Z,58.93
2023-02-12T06:04:39.415Z,61.10
2023-02-12T06:07:20.185Z,59.37
2023-02-12T06:09:52.904Z,64.20
2023-02-12T06:12:24.998Z,66.90
2023-02-12T06:14:56.767Z,64.53
2023-02-12T06:17:27.930Z,73.87
2023-02-12T06:19:59.613Z,67.70
2023-02-12T06:22:34.839Z,69.87
2023-02-12T06:25:09.138Z,74.37
2023-02-12T06:27:44.307Z,67.93
2023-02-12T06:30:18.130Z,60.87
2023-02-12T06:32:53.628Z,60.10
2023-02-12T06:35:26.559Z,66.20
2023-02-12T06:38:01.712Z,65.30
2023-02-12T06:40:37.491Z,70.33
2023-02-12T06:43:10.476Z,74.03
2023-02-12T06:45:43.300Z,71.13
2023-02-12T06:48:19.681Z,72.80
2023-02-12T06:50:51.961Z,62.30
2023-02-12T06:53:29.929Z,67.23
2023-02-12T06:56:12.951Z,72.97
2023-02-12T06:58:53.773Z,58.80
2023-02-12T07:01:31.523Z,62.07
2023-02-12T07:04:07.899Z,58.87
2023-02-12T07:06:39.606Z,57.53
2023-02-12T07:09:18.532Z,58.20
2023-02-12T07:11:54.297Z,62.87
2023-02-12T07:14:38.716Z,67.47
2023-02-12T07:17:11.845Z,62.37
2023-02-12T07:19:50.374Z,61.73
2023-02-12T07:22:28.402Z,62.00
2023-02-12T07:25:00.389Z,60.33
2023-02-12T07:27:33.018Z,55.60
2023-02-12T07:30:09.010Z,59.90
2023-02-12T07:32:41.846Z,59.67
2023-02-12T07:35:14.260Z,62.07
2023-02-12T07:37:46.550Z,60.83
2023-02-12T07:40:20.692Z,60.07
2023-02-12T07:42:58.948Z,61.77
2023-02-12T07:45:34.634Z,70.43
2023-02-12T07:48:07.481Z,71.00
2023-02-12T07:50:42.363Z,66.73
2023-02-12T07:53:15.019Z,70.50
2023-02-12T07:55:53.725Z,69.23
2023-02-12T07:58:29.369Z,63.40
2023-02-12T08:01:01.910Z,60.00
2023-02-12T08:03:34.429Z,66.70
2023-02-12T08:06:19.403Z,63.43
2023-02-12T08:08:56.186Z,59.53
2023-02-12T08:11:39.350Z,61.23
2023-02-12T08:14:16.674Z,62.00
2023-02-12T08:16:52.742Z,59.00
2023-02-12T08:19:27.658Z,60.00
2023-02-12T08:22:06.146Z,64.87
2023-02-12T08:24:38.596Z,55.37
2023-02-12T08:27:10.465Z,58.30
2023-02-12T08:29:43.037Z,58.93
2023-02-12T08:32:26.526Z,64.43
2023-02-12T08:34:59.196Z,58.07
2023-02-12T08:37:36.859Z,52.10
2023-02-12T08:40:10.582Z,58.03
2023-02-12T08:42:42.375Z,54.73
2023-02-12T08:45:15.516Z,61.20
2023-02-12T08:47:51.292Z,52.27
2023-02-12T08:50:23.720Z,56.83
2023-02-12T08:52:56.341Z,54.03
2023-02-12T08:55:29.766Z,49.00
2023-02-12T08:58:09.165Z,48.00
2023-02-12T09:00:43.190Z,51.43
2023-02-12T09:03:17.260Z,50.43
2023-02-12T09:05:49.942Z,48.63
2023-02-12T09:08:25.057Z,44.13
2023-02-12T09:10:57.782Z,52.47
2023-02-12T09:13:30.225Z,48.30
2023-02-12T09:16:08.556Z,47.73
2023-02-12T09:18:42.092Z,42.90
2023-02-12T09:21:18.846Z,40.80
2023-02-12T09:23:52.037Z,40.20
2023-02-12T09:26:27.963Z,40.13
2023-02-12T09:29:01.181Z,42.27
2023-02-12T09:31:35.852Z,41.13
2023-02-12T09:34:10.782Z,39.97
2023-02-12T09:36:42.098Z,45.17
2023-02-12T09:39:17.017Z,40.07
2023-02-12T09:42:39.946Z,40.57
2023-02-12T09:45:34.221Z,38.10
2023-02-12T09:48:41.249Z,38.00
2023-02-12T09:51:20.297Z,38.03
2023-02-12T09:54:25.338Z,36.77
2023-02-12T09:57:09.444Z,37.30
2023-02-12T10:00:21.660Z,37.53
2023-02-12T10:03:05.155Z,34.93
2023-02-12T10:06:13.924Z,37.40
2023-02-12T10:09:25.521Z,35.80
2023-02-12T10:12:41.687Z,37.80
2023-02-12T10:15:47.655Z,35.80
2023-02-12T10:19:11.410Z,34.57
2023-02-12T10:22:56.725Z,36.00
2023-02-12T10:26:18.065Z,38.50
2023-02-12T10:28:56.728Z,36.07
2023-02-12T10:32:14.400Z,39.23
2023-02-12T10:34:48.692Z,37.50
2023-02-12T10:38:39.785Z,32.30
2023-02-12T10:41:19.960Z,30.17
2023-02-12T10:43:52.993Z,32.30
2023-02-12T10:46:26.432Z,36.07
2023-02-12T10:49:04.052Z,33.47
2023-02-12T10:52:48.554Z,33.73
2023-02-12T10:55:40.936Z,33.00
2023-02-12T10:58:26.574Z,38.10
2023-02-12T11:01:08.031Z,30.83
2023-02-12T11:03:41.531Z,30.90
2023-02-12T11:06:35.419Z,29.80
2023-02-12T11:09:07.786Z,27.97
2023-02-12T11:11:42.659Z,30.63
2023-02-12T11:14:26.136Z,33.20
2023-02-12T11:17:04.333Z,31.30
2023-02-12T11:19:37.444Z,36.93
2023-02-12T11:22:20.170Z,40.40
2023-02-12T11:25:19.463Z,36.77
2023-02-12T11:28:18.971Z,30.03
2023-02-12T11:31:22.662Z,31.70
2023-02-12T11:34:23.357Z,27.83
2023-02-12T11:36:58.437Z,34.30
2023-02-12T11:39:50.779Z,32.50
2023-02-12T11:42:36.660Z,34.33
2023-02-12T11:45:23.721Z,34.73
2023-02-12T11:47:56.966Z,30.97
2023-02-12T11:50:36.453Z,31.43
2023-02-12T11:53:31.079Z,31.80
2023-02-12T11:56:15.434Z,29.20
2023-02-12T11:58:52.808Z,29.30
2023-02-12T12:01:44.541Z,30.33
2023-02-12T12:04:25.074Z,26.77
2023-02-12T12:07:34.179Z,32.80
2023-02-12T12:10:36.921Z,31.37
2023-02-12T12:13:37.810Z,30.90
2023-02-12T12:17:16.062Z,26.60
2023-02-12T12:20:24.612Z,32.47
2023-02-12T12:23:46.183Z,28.40
2023-02-12T12:26:36.147Z,31.77
2023-02-12T12:29:54.463Z,27.50
2023-02-12T12:32:40.831Z,28.80
2023-02-12T12:35:27.426Z,28.13
2023-02-12T12:38:27.230Z,33.40
2023-02-12T12:41:31.616Z,27.20
2023-02-12T12:45:03.445Z,28.93
2023-02-12T12:48:57.805Z,32.50
2023-02-12T12:52:02.186Z,28.57
2023-02-12T12:55:14.104Z,28.00
2023-02-12T12:58:17.194Z,29.80
2023-02-12T13:01:50.729Z,29.83
2023-02-12T13:05:39.316Z,29.43
2023-02-12T13:09:00.404Z,28.63
2023-02-12T13:12:17.700Z,29.47
2023-02-12T13:15:18.793Z,30.67
2023-02-12T13:19:00.369Z,27.37
2023-02-12T13:22:34.850Z,30.53
2023-02-12T13:25:47.518Z,31.63
2023-02-12T13:29:04.236Z,30.03
2023-02-12T13:32:07.246Z,31.90
2023-02-12T13:34:45.823Z,33.10
2023-02-12T13:37:50.901Z,34.33
2023-02-12T13:40:32.370Z,36.47
2023-02-12T13:44:07.726Z,33.60
2023-02-12T13:47:20.105Z,35.57
2023-02-12T13:50:30.724Z,38.40
2023-02-12T13:54:07.319Z,33.87
2023-02-12T13:56:55.944Z,31.87
2023-02-12T13:59:36.775Z,33.10
2023-02-12T14:02:41.626Z,30.87
2023-02-12T14:05:34.584Z,34.17
2023-02-12T14:08:27.693Z,31.87
2023-02-12T14:11:33.791Z,32.90
2023-02-12T14:14:09.278Z,34.77
2023-02-12T14:16:45.025Z,28.53
2023-02-12T14:20:25.297Z,34.37
2023-02-12T14:23:34.048Z,33.63
2023-02-12T14:26:26.065Z,30.87
2023-02-12T14:29:06.882Z,32.27
2023-02-12T14:31:40.056Z,31.97
2023-02-12T14:34:08.762Z,33.53
2023-02-12T14:36:44.162Z,35.50
2023-02-12T14:39:20.617Z,31.70
2023-02-12T14:42:16.612Z,33.30
2023-02-12T14:44:59.397Z,29.00
2023-02-12T14:47:30.184Z,32.23
2023-02-12T14:50:18.990Z,30.47
2023-02-12T14:53:00.527Z,28.57
2023-02-12T14:55:37.552Z,34.30
2023-02-12T14:58:21.289Z,28.17
2023-02-12T15:00:58.299Z,30.67
2023-02-12T15:03:38.204Z,29.67
2023-02-12T15:06:21.448Z,30.60
2023-02-12T15:09:12.490Z,37.60
2023-02-12T15:11:58.683Z,31.30
2023-02-12T15:14:37.317Z,32.80
2023-02-12T15:17:28.038Z,30.50
2023-02-12T15:20:21.388Z,34.53
2023-02-12T15:22:49.103Z,29.93
2023-02-12T15:25:33.409Z,34.10
2023-02-12T15:28:19.125Z,45.10
2023-02-12T15:30:53.767Z,37.10
2023-02-12T15:33:34.836Z,43.17
2023-02-12T15:36:06.815Z,44.83
2023-02-12T15:38:44.967Z,47.60
2023-02-12T15:41:40.438Z,49.40
2023-02-12T15:44:35.012Z,36.17
2023-02-12T15:47:17.269Z,33.43
2023-02-12T15:49:45.058Z,42.53
2023-02-12T15:52:34.721Z,38.27
2023-02-12T15:55:05.784Z,36.20
2023-02-12T15:57:34.249Z,35.80
2023-02-12T16:00:43.466Z,38.43
2023-02-12T16:03:33.773Z,35.80
2023-02-12T16:06:16.891Z,36.23
2023-02-12T16:09:15.076Z,41.63
2023-02-12T16:11:48.560Z,47.70
2023-02-12T16:14:56.826Z,48.10
2023-02-12T16:17:38.405Z,42.20
2023-02-12T16:20:27.600Z,40.53
2023-02-12T16:22:57.097Z,40.60
2023-02-12T16:25:32.688Z,36.13
2023-02-12T16:28:31.473Z,34.20
2023-02-12T16:31:16.587Z,45.60
2023-02-12T16:33:54.131Z,40.47
2023-02-12T16:36:24.439Z,36.73
2023-02-12T16:39:08.652Z,37.20
2023-02-12T16:41:57.216Z,42.20
2023-02-12T16:44:32.292Z,36.73
2023-02-12T16:47:03.165Z,38.40
2023-02-12T16:49:31.104Z,37.00
2023-02-12T16:52:39.904Z,34.77
2023-02-12T16:55:18.160Z,37.60
2023-02-12T16:57:46.378Z,37.50
2023-02-12T17:00:18.305Z,34.77
2023-02-12T17:02:47.408Z,41.60
2023-02-12T17:05:19.303Z,32.87
2023-02-12T17:07:46.967Z,37.30
2023-02-12T17:10:18.046Z,30.53
2023-02-12T17:12:53.563Z,32.07
2023-02-12T17:15:38.139Z,34.70
2023-02-12T17:18:06.136Z,31.40
2023-02-12T17:20:34.176Z,30.93
2023-02-12T17:23:01.959Z,35.40
2023-02-12T17:25:30.357Z,31.00
2023-02-12T17:27:58.904Z,31.60
2023-02-12T17:30:29.011Z,33.63
2023-02-12T17:32:56.818Z,30.00
2023-02-12T17:35:24.498Z,33.63
2023-02-12T17:37:53.048Z,34.00
2023-02-12T17:40:21.514Z,38.03
2023-02-12T17:42:49.758Z,33.90
2023-02-12T17:45:17.692Z,30.57
2023-02-12T17:47:45.505Z,36.67
2023-02-12T17:50:16.877Z,38.80
2023-02-12T17:52:44.981Z,34.73
2023-02-12T17:55:15.177Z,39.97
2023-02-12T17:57:43.599Z,37.27
2023-02-12T18:00:18.676Z,36.20
2023-02-12T18:02:47.788Z,36.27
2023-02-12T18:05:16.433Z,35.77
2023-02-12T18:07:44.622Z,34.83
2023-02-12T18:10:13.366Z,33.97
2023-02-12T18:12:41.858Z,40.53
2023-02-12T18:15:10.995Z,32.07
2023-02-12T18:17:43.288Z,35.37
2023-02-12T18:20:12.565Z,36.60
2023-02-12T18:22:40.485Z,37.40
2023-02-12T18:25:08.986Z,32.90
2023-02-12T18:27:39.635Z,38.53
2023-02-12T18:30:11.245Z,38.00
2023-02-12T18:32:39.059Z,43.20
2023-02-12T18:35:09.261Z,39.47
2023-02-12T18:37:36.948Z,37.23
2023-02-12T18:40:05.491Z,38.10
2023-02-12T18:42:33.504Z,46.43
2023-02-12T18:45:01.202Z,37.37
2023-02-12T18:47:29.030Z,41.03
2023-02-12T18:49:58.130Z,40.93
2023-02-12T18:52:26.473Z,41.93
2023-02-12T18:54:54.155Z,42.43
2023-02-12T18:57:21.899Z,49.77
2023-02-12T18:59:49.625Z,43.53
2023-02-12T19:02:17.323Z,47.80
2023-02-12T19:04:45.139Z,46.83
2023-02-12T19:07:12.933Z,41.57
2023-02-12T19:09:40.908Z,45.00
2023-02-12T19:12:09.144Z,44.17
2023-02-12T19:14:36.888Z,41.60
2023-02-12T19:17:04.498Z,46.10
2023-02-12T19:19:32.225Z,48.77
2023-02-12T19:21:59.988Z,45.40
2023-02-12T19:24:40.920Z,46.60
2023-02-12T19:27:13.714Z,48.03
2023-02-12T19:29:41.292Z,44.17
2023-02-12T19:32:09.154Z,49.00
2023-02-12T19:34:37.147Z,58.70
2023-02-12T19:37:04.872Z,46.90
2023-02-12T19:39:32.633Z,52.33
2023-02-12T19:42:00.309Z,49.67
2023-02-12T19:44:28.004Z,46.60
2023-02-12T19:46:56.984Z,47.13
2023-02-12T19:49:29.513Z,48.80
2023-02-12T19:51:57.350Z,46.70
2023-02-12T19:54:25.907Z,42.63
2023-02-12T19:56:55.488Z,50.33
2023-02-12T19:59:27.115Z,48.63
2023-02-12T20:01:56.620Z,48.63
2023-02-12T20:04:25.725Z,43.27
2023-02-12T20:06:54.013Z,44.03
2023-02-12T20:09:23.046Z,42.60
2023-02-12T20:11:52.261Z,46.70
2023-02-12T20:14:22.940Z,46.33
2023-02-12T20:16:56.260Z,52.13
2023-02-12T20:19:31.701Z,44.17
2023-02-12T20:22:02.261Z,52.30
2023-02-12T20:24:34.659Z,41.93
2023-02-12T20:27:04.498Z,42.27
2023-02-12T20:29:32.973Z,45.20
2023-02-12T20:32:01.022Z,45.80
2023-02-12T20:34:29.590Z,48.80
2023-02-12T20:36:58.453Z,45.77
2023-02-12T20:39:26.103Z,43.37
2023-02-12T20:41:53.859Z,43.73
2023-02-12T20:44:22.973Z,45.60
2023-02-12T20:46:56.494Z,42.03
2023-02-12T20:49:26.234Z,44.13
2023-02-12T20:51:54.807Z,39.97
2023-02-12T20:54:22.543Z,42.07
2023-02-12T20:56:51.199Z,43.00
2023-02-12T20:59:20.522Z,44.57
2023-02-12T21:01:48.598Z,47.73
2023-02-12T21:04:19.793Z,51.67
2023-02-12T21:06:48.821Z,48.50
2023-02-12T21:09:18.915Z,49.03
2023-02-12T21:11:47.623Z,46.40
2023-02-12T21:14:24.739Z,42.73
2023-02-12T21:16:57.135Z,46.67
2023-02-12T21:19:27.122Z,46.77
2023-02-12T21:21:55.635Z,42.83
2023-02-12T21:24:26.436Z,46.37
2023-02-12T21:26:55.857Z,46.67
2023-02-12T21:29:26.725Z,44.03
2023-02-12T21:31:55.253Z,46.43
2023-02-12T21:34:24.249Z,45.33
2023-02-12T21:36:56.961Z,43.00
2023-02-12T21:39:29.273Z,46.80
2023-02-12T21:42:03.313Z,43.50
2023-02-12T21:44:35.525Z,43.20
2023-02-12T21:47:03.910Z,41.93
2023-02-12T21:49:31.673Z,44.27
2023-02-12T21:52:06.830Z,40.07
2023-02-12T21:54:35.431Z,43.80
2023-02-12T21:57:03.373Z,46.50
2023-02-12T21:59:32.492Z,38.17
2023-02-12T22:02:01.910Z,42.10
2023-02-12T22:04:30.630Z,38.10
2023-02-12T22:07:03.186Z,35.47
2023-02-12T22:09:31.901Z,37.43
2023-02-12T22:11:59.683Z,39.17
2023-02-12T22:14:27.362Z,37.57
2023-02-12T22:16:55.023Z,35.27
2023-02-12T22:19:22.734Z,36.80
2023-02-12T22:21:51.894Z,33.63
2023-02-12T22:24:21.938Z,30.33
2023-02-12T22:26:49.815Z,33.50
2023-02-12T22:29:18.177Z,34.10
2023-02-12T22:31:48.042Z,35.60
2023-02-12T22:34:19.259Z,35.47
2023-02-12T22:36:48.281Z,34.20
2023-02-12T22:39:17.787Z,37.00
2023-02-12T22:41:46.218Z,39.03
2023-02-12T22:44:16.624Z,31.90
2023-02-12T22:46:45.292Z,28.00
2023-02-12T22:49:13.883Z,32.87
2023-02-12T22:51:42.312Z,34.60
2023-02-12T22:54:18.188Z,34.60
2023-02-12T22:56:51.490Z,29.13
2023-02-12T22:59:36.457Z,30.63
2023-02-12T23:02:06.413Z,31.27
2023-02-12T23:04:37.974Z,30.90
2023-02-12T23:07:09.538Z,33.73
2023-02-12T23:09:38.849Z,31.03
2023-02-12T23:12:10.292Z,35.37
2023-02-12T23:14:41.984Z,28.13
2023-02-12T23:17:10.918Z,32.50
2023-02-12T23:19:39.280Z,33.20
2023-02-12T23:22:07.913Z,40.90
2023-02-12T23:24:36.329Z,29.13
2023-02-12T23:27:04.480Z,36.63
2023-02-12T23:29:32.666Z,31.17
2023-02-12T23:32:01.014Z,29.07
2023-02-12T23:34:29.546Z,31.17
2023-02-12T23:36:58.175Z,28.07
2023-02-12T23:39:26.803Z,30.23
2023-02-12T23:41:55.483Z,31.00
2023-02-12T23:44:23.970Z,27.93
2023-02-12T23:46:54.254Z,33.67
2023-02-12T23:49:22.654Z,25.20
2023-02-12T23:51:50.663Z,29.97
2023-02-12T23:54:18.644Z,29.03
2023-02-12T23:56:46.439Z,29.37
2023-02-12T23:59:14.240Z,28.50
